Indianapolis, Indiana
Traffic Map
Current Weather Conditions
Indianapolis, Indiana
Overcast
Overcast
24°
Feels Like: 24°
Wind Chill: 24° Ceiling: 2900
Heat Index: 24° Visibility: 10mi
Dew Point: 18° Wind: 15mph
Humidity: 69% Direction: 110° (ESE)
Pressure: 30.09in Gusts: 0mph
Raw Report DataKIND 251626Z 11013KT 10SM BKN029 BKN045 OVC070 24/18 A3009 RMK AO2 T02390178
Traffic Incident Summary
Active as of:
Severity:
Category:
InformationThere was an issue retrieving the traffic information for this location. Please try a different location or try again shortly.
Advertisements